Time;durP1;ratioP1;P1;durP2;ratioP2;P2;SDS_P1;SDS_P2;PMS_P1;PMS_P2;Temp;Humidity;BMP_temperature;BMP_pressure;BME280_temperature;BME280_humidity;BME280_pressure;Samples;Min_cycle;Max_cycle;Signal;HPM_P1;HPM_P2
2022/03/08 00:01:20;;;;;;;11.73;8.03;;;;;;;-3.96;100.00;97103.88;5008942;28;21283;-74
2022/03/08 00:03:47;;;;;;;9.43;7.30;;;;;;;-4.03;100.00;97085.06;5009047;28;20810;-74
2022/03/08 00:06:15;;;;;;;10.73;8.93;;;;;;;-3.92;100.00;97082.56;5008977;28;21020;-74
2022/03/08 00:08:42;;;;;;;11.90;8.73;;;;;;;-3.49;100.00;97114.47;4995607;28;20436;-74
2022/03/08 00:11:10;;;;;;;9.30;8.03;;;;;;;-3.60;100.00;97072.88;4993559;28;20464;-74
2022/03/08 00:13:37;;;;;;;11.60;9.60;;;;;;;-3.72;100.00;97073.81;5008649;28;21007;-74
2022/03/08 00:16:04;;;;;;;10.27;8.17;;;;;;;-3.71;100.00;97070.22;4966791;28;20536;-74
2022/03/08 00:18:32;;;;;;;8.57;7.70;;;;;;;-3.94;100.00;97047.63;4990317;28;20876;-74
2022/03/08 00:20:59;;;;;;;9.00;7.50;;;;;;;-3.23;100.00;97097.84;4984694;28;20496;-74
2022/03/08 00:23:26;;;;;;;7.43;6.70;;;;;;;-3.42;100.00;97060.91;4987772;28;20475;-74
2022/03/08 00:25:53;;;;;;;7.43;6.67;;;;;;;-3.35;100.00;97075.31;5008271;28;20492;-74
2022/03/08 00:28:20;;;;;;;13.17;9.77;;;;;;;-3.41;100.00;97088.34;4991830;28;20743;-74
2022/03/08 00:30:46;;;;;;;12.97;7.93;;;;;;;-3.61;100.00;97037.69;5008062;28;20533;-74
2022/03/08 00:33:13;;;;;;;9.83;7.07;;;;;;;-3.41;100.00;97055.53;5007657;28;20938;-74
2022/03/08 00:35:40;;;;;;;8.40;6.20;;;;;;;-3.48;100.00;97056.59;5007860;28;20961;-74
2022/03/08 00:38:07;;;;;;;12.67;7.33;;;;;;;-3.30;100.00;97069.50;4991468;28;20442;-75
2022/03/08 00:40:33;;;;;;;8.27;5.80;;;;;;;-3.36;100.00;97067.78;4992857;28;20424;-75
2022/03/08 00:43:00;;;;;;;9.03;6.30;;;;;;;-3.57;100.00;97058.72;5007309;28;20842;-75
2022/03/08 00:45:27;;;;;;;6.63;5.43;;;;;;;-3.36;100.00;97083.28;4975899;28;20495;-75
2022/03/08 00:47:54;;;;;;;10.83;6.40;;;;;;;-3.16;100.00;97077.88;5007776;28;20463;-75
2022/03/08 00:50:24;;;;;;;6.00;5.50;;;;;;;-3.31;100.00;97073.91;4991490;28;20437;-75
2022/03/08 00:52:52;;;;;;;6.93;6.23;;;;;;;-3.51;100.00;97037.16;4992628;28;21021;-75
2022/03/08 00:55:19;;;;;;;6.07;5.47;;;;;;;-3.30;100.00;97072.09;4991463;28;20820;-75
2022/03/08 00:57:47;;;;;;;7.23;5.50;;;;;;;-3.30;100.00;97062.53;4990293;28;20441;-75
2022/03/08 01:00:16;;;;;;;7.43;6.67;;;;;;;-3.39;100.00;97039.78;4999003;28;20835;-75
2022/03/08 01:02:43;;;;;;;6.60;5.63;;;;;;;-3.21;100.00;97069.97;5007438;28;20796;-75
2022/03/08 01:05:11;;;;;;;5.93;5.07;;;;;;;-3.26;100.00;97073.22;4991158;28;20981;-75
2022/03/08 01:07:39;;;;;;;6.60;5.80;;;;;;;-3.46;100.00;97008.09;4990931;28;20469;-75
2022/03/08 01:10:09;;;;;;;8.77;5.90;;;;;;;-3.18;100.00;97054.03;4974966;28;20433;-75
2022/03/08 01:12:36;;;;;;;6.17;5.57;;;;;;;-3.38;100.00;97049.91;4990727;28;20453;-75
2022/03/08 01:15:05;;;;;;;4.60;4.20;;;;;;;-3.64;100.00;97021.84;4992091;28;20453;-74
2022/03/08 01:17:33;;;;;;;8.57;6.00;;;;;;;-3.81;100.00;97062.19;4991023;28;20440;-74
2022/03/08 01:19:59;;;;;;;6.90;5.40;;;;;;;-3.80;100.00;97045.69;4981138;28;20494;-74
2022/03/08 01:22:26;;;;;;;5.60;5.10;;;;;;;-3.53;100.00;97056.47;4991140;28;20460;-74
2022/03/08 01:24:53;;;;;;;5.53;4.80;;;;;;;-3.87;100.00;96996.72;4991086;28;20491;-74
2022/03/08 01:27:19;;;;;;;7.03;5.00;;;;;;;-3.61;100.00;97026.56;4991278;28;20488;-74
2022/03/08 01:29:46;;;;;;;8.70;4.80;;;;;;;-3.52;100.00;97038.19;4992497;28;20460;-74
2022/03/08 01:32:13;;;;;;;6.60;5.10;;;;;;;-3.12;100.00;97043.59;5006982;28;20441;-74
2022/03/08 01:34:40;;;;;;;5.10;4.60;;;;;;;-3.25;100.00;97025.69;5007269;28;20457;-74
2022/03/08 01:37:06;;;;;;;7.80;5.80;;;;;;;-3.27;100.00;97035.47;4990788;28;20613;-74
2022/03/08 01:39:34;;;;;;;6.90;6.27;;;;;;;-3.54;100.00;97026.47;4977995;28;20465;-74
2022/03/08 01:42:11;;;;;;;7.17;6.40;;;;;;;-3.54;100.00;97016.94;4992203;28;20432;-74
2022/03/08 01:44:43;;;;;;;7.70;6.57;;;;;;;-3.30;100.00;97031.53;5006990;28;20989;-74
2022/03/08 01:47:19;;;;;;;9.00;6.07;;;;;;;-3.48;100.00;97005.72;4989376;28;20508;-74
2022/03/08 01:49:47;;;;;;;9.63;6.90;;;;;;;-3.39;100.00;97027.66;5007319;28;20503;-74
2022/03/08 01:52:15;;;;;;;7.37;5.97;;;;;;;-3.43;100.00;97023.16;4990980;28;20551;-74
2022/03/08 01:54:43;;;;;;;8.00;7.30;;;;;;;-3.58;100.00;96989.97;5006159;28;20560;-74
2022/03/08 01:57:12;;;;;;;9.80;7.63;;;;;;;-3.73;100.00;96981.81;4990919;28;20503;-74
2022/03/08 01:59:39;;;;;;;11.80;7.43;;;;;;;-3.42;100.00;97004.06;4991281;28;20975;-74
2022/03/08 02:02:07;;;;;;;9.90;6.97;;;;;;;-3.59;100.00;96991.75;5007410;28;20432;-74
2022/03/08 02:04:34;;;;;;;10.30;7.87;;;;;;;-3.46;100.00;97006.31;5007128;28;20576;-74
2022/03/08 02:07:01;;;;;;;8.13;7.30;;;;;;;-3.84;100.00;97001.44;4990681;28;20492;-74
2022/03/08 02:09:27;;;;;;;10.00;7.60;;;;;;;-4.09;100.00;96969.75;4990943;28;20433;-74
2022/03/08 02:11:54;;;;;;;9.63;6.40;;;;;;;-3.78;100.00;97003.13;4992050;28;20519;-74
2022/03/08 02:14:21;;;;;;;11.97;7.47;;;;;;;-3.67;100.00;96997.22;5006699;28;20543;-74
2022/03/08 02:16:47;;;;;;;13.03;7.73;;;;;;;-3.57;100.00;97009.63;4993742;28;20441;-74
2022/03/08 02:19:15;;;;;;;8.30;7.50;;;;;;;-3.65;100.00;96986.66;4961827;28;20441;-74
2022/03/08 02:21:45;;;;;;;9.87;7.30;;;;;;;-3.50;100.00;97001.78;5006916;28;20543;-74
2022/03/08 02:24:11;;;;;;;7.93;6.50;;;;;;;-3.89;100.00;96932.31;5006826;28;20461;-74
2022/03/08 02:26:38;;;;;;;7.63;7.03;;;;;;;-3.60;100.00;96968.72;5006573;28;20469;-74
2022/03/08 02:29:08;;;;;;;8.47;7.37;;;;;;;-3.84;100.00;96936.84;5006684;28;20478;-74
2022/03/08 02:31:35;;;;;;;9.13;6.83;;;;;;;-3.57;100.00;96988.97;4992080;28;20495;-74
2022/03/08 02:34:03;;;;;;;10.60;7.20;;;;;;;-3.63;100.00;96988.03;5006404;28;20472;-74
2022/03/08 02:36:30;;;;;;;9.43;6.80;;;;;;;-4.25;100.00;96909.19;4990267;28;20476;-74
2022/03/08 02:38:57;;;;;;;9.27;8.30;;;;;;;-4.16;100.00;96937.03;4991678;28;20433;-74
2022/03/08 02:41:24;;;;;;;10.27;8.10;;;;;;;-3.89;100.00;96986.56;5006557;28;20948;-74
2022/03/08 02:43:51;;;;;;;8.97;7.70;;;;;;;-3.95;100.00;96956.47;5006512;28;20507;-74
2022/03/08 02:46:18;;;;;;;9.73;8.07;;;;;;;-3.95;100.00;96950.50;4990073;28;20951;-74
2022/03/08 02:48:45;;;;;;;9.57;7.70;;;;;;;-3.89;100.00;96983.19;5006575;28;20429;-74
2022/03/08 02:51:11;;;;;;;17.63;8.47;;;;;;;-4.29;100.00;96918.34;5006579;28;20487;-74
2022/03/08 02:53:38;;;;;;;7.67;6.87;;;;;;;-3.76;100.00;96982.25;4990090;28;20461;-74
2022/03/08 02:56:05;;;;;;;9.93;8.77;;;;;;;-3.88;100.00;96953.78;4991496;28;20429;-74
2022/03/08 02:58:31;;;;;;;9.00;7.50;;;;;;;-3.76;100.00;96966.75;4973710;28;20515;-74
2022/03/08 03:00:58;;;;;;;9.97;7.20;;;;;;;-3.89;100.00;96955.56;5006088;28;20457;-74
2022/03/08 03:03:25;;;;;;;8.00;6.73;;;;;;;-3.82;100.00;96968.41;5005835;28;20448;-74
2022/03/08 03:05:52;;;;;;;11.67;7.70;;;;;;;-3.77;100.00;96968.53;4991447;28;20503;-74
2022/03/08 03:08:18;;;;;;;10.27;7.30;;;;;;;-3.82;100.00;96968.41;4993072;28;20895;-74
2022/03/08 03:10:45;;;;;;;7.73;6.50;;;;;;;-3.68;100.00;96984.53;4994466;28;20434;-74
2022/03/08 03:13:12;;;;;;;8.93;6.50;;;;;;;-3.68;100.00;96980.16;4994449;28;20433;-74
2022/03/08 03:15:39;;;;;;;9.37;7.33;;;;;;;-3.81;100.00;96971.78;4994223;28;20968;-74
2022/03/08 03:18:10;;;;;;;10.00;7.77;;;;;;;-3.71;100.00;96988.34;4993095;28;20429;-74
2022/03/08 03:20:37;;;;;;;7.47;6.53;;;;;;;-3.52;100.00;96978.75;4993022;28;20443;-74
2022/03/08 03:23:04;;;;;;;6.47;5.77;;;;;;;-3.46;100.00;96982.25;4994249;28;20933;-74
2022/03/08 03:25:31;;;;;;;8.43;5.30;;;;;;;-3.74;100.00;96967.31;4992930;28;20444;-74
2022/03/08 03:27:57;;;;;;;6.50;5.83;;;;;;;-3.93;100.00;96974.31;5008996;28;21067;-74
2022/03/08 03:30:24;;;;;;;7.30;4.97;;;;;;;-3.92;100.00;96983.63;5009173;28;20487;-74
2022/03/08 03:32:51;;;;;;;7.67;6.50;;;;;;;-4.27;100.00;96948.13;5009062;28;20595;-74
2022/03/08 03:35:18;;;;;;;5.47;4.80;;;;;;;-4.22;100.00;96968.91;4994128;28;20511;-74
2022/03/08 03:37:44;;;;;;;21.63;5.50;;;;;;;-4.36;100.00;96974.44;4992808;28;20455;-74
2022/03/08 03:40:12;;;;;;;7.40;5.60;;;;;;;-4.55;100.00;96964.09;4981177;28;20432;-73
2022/03/08 03:42:39;;;;;;;7.83;5.27;;;;;;;-4.87;100.00;96914.41;5008809;28;20446;-73
2022/03/08 03:45:07;;;;;;;6.67;6.00;;;;;;;-4.39;100.00;96974.88;4992502;28;20460;-73
2022/03/08 03:47:34;;;;;;;8.50;7.77;;;;;;;-4.41;100.00;96976.84;5008586;28;20464;-74
2022/03/08 03:50:02;;;;;;;8.10;6.03;;;;;;;-4.59;100.00;96962.16;4993886;28;20469;-74
2022/03/08 03:52:29;;;;;;;6.60;5.50;;;;;;;-4.43;100.00;96987.38;4992410;28;20518;-74
2022/03/08 03:54:56;;;;;;;9.73;6.63;;;;;;;-4.66;100.00;96966.59;4992454;28;20547;-74
2022/03/08 03:57:22;;;;;;;7.60;5.37;;;;;;;-4.65;100.00;96971.53;5008713;28;20471;-74
2022/03/08 03:59:49;;;;;;;10.03;5.93;;;;;;;-4.81;100.00;96956.59;5008583;28;20436;-73
2022/03/08 04:02:15;;;;;;;7.07;5.17;;;;;;;-4.67;100.00;96983.88;4992432;28;20579;-73
2022/03/08 04:04:42;;;;;;;8.57;5.60;;;;;;;-4.83;100.00;96951.66;4976143;28;20456;-73
2022/03/08 04:07:09;;;;;;;9.70;6.40;;;;;;;-4.84;100.00;96957.03;4992082;28;21034;-73
2022/03/08 04:09:36;;;;;;;8.43;5.50;;;;;;;-4.60;100.00;96986.38;4992365;28;20971;-73
2022/03/08 04:12:03;;;;;;;6.57;5.93;;;;;;;-4.47;100.00;96993.97;4993374;28;20436;-73
2022/03/08 04:14:29;;;;;;;8.23;6.00;;;;;;;-4.73;100.00;96960.72;4991845;28;20461;-73
2022/03/08 04:16:56;;;;;;;11.03;6.27;;;;;;;-4.75;100.00;96963.50;4991144;28;20441;-73
2022/03/08 04:19:23;;;;;;;9.13;6.90;;;;;;;-5.11;100.00;96946.16;4992616;28;20545;-74
2022/03/08 04:21:49;;;;;;;13.10;7.90;;;;;;;-4.86;100.00;96983.03;4995538;28;20425;-74
2022/03/08 04:24:16;;;;;;;6.50;5.90;;;;;;;-4.96;100.00;96956.16;4983523;28;20994;-75
2022/03/08 04:26:43;;;;;;;10.93;5.87;;;;;;;-4.92;100.00;96954.75;4988498;28;20459;-73
2022/03/08 04:29:09;;;;;;;7.80;6.27;;;;;;;-5.20;100.00;96968.06;4993019;28;20576;-74
2022/03/08 04:31:36;;;;;;;15.27;6.93;;;;;;;-5.09;100.00;96993.91;4993020;28;20996;-74
2022/03/08 04:34:03;;;;;;;9.93;8.93;;;;;;;-5.14;100.00;96962.06;4982252;28;20473;-74
2022/03/08 04:36:29;;;;;;;7.20;6.17;;;;;;;-5.24;100.00;96934.19;4988222;28;20507;-74
2022/03/08 04:38:57;;;;;;;10.63;7.80;;;;;;;-4.94;100.00;96980.75;5008133;28;20519;-74
2022/03/08 04:41:25;;;;;;;16.47;6.60;;;;;;;-5.03;100.00;96966.53;5007905;28;20443;-74
2022/03/08 04:43:52;;;;;;;11.23;7.77;;;;;;;-5.07;100.00;96975.69;4991534;28;20452;-74
2022/03/08 04:46:19;;;;;;;12.47;7.90;;;;;;;-5.20;100.00;96975.78;4991456;28;20455;-74
2022/03/08 04:48:45;;;;;;;10.70;6.73;;;;;;;-5.25;100.00;96984.13;4992755;28;20463;-74
2022/03/08 04:51:12;;;;;;;9.17;8.23;;;;;;;-5.36;100.00;96977.88;5007617;28;20429;-74
2022/03/08 04:53:39;;;;;;;8.70;7.67;;;;;;;-5.23;100.00;96995.03;4992506;28;20948;-73
2022/03/08 04:56:06;;;;;;;15.00;7.30;;;;;;;-5.29;100.00;96985.56;4992603;28;20523;-73
2022/03/08 04:58:32;;;;;;;7.17;6.40;;;;;;;-5.20;100.00;96999.00;4991319;28;20440;-73
2022/03/08 05:00:59;;;;;;;9.47;7.87;;;;;;;-5.21;100.00;96993.06;4991108;28;20479;-73
2022/03/08 05:03:26;;;;;;;7.90;6.57;;;;;;;-5.35;100.00;96987.16;5007143;28;20514;-73
2022/03/08 05:05:53;;;;;;;11.00;7.80;;;;;;;-5.28;100.00;97004.38;5007230;28;20445;-73
2022/03/08 05:08:19;;;;;;;7.57;6.77;;;;;;;-5.47;100.00;96960.53;5007151;28;20518;-73
2022/03/08 05:10:46;;;;;;;8.73;7.43;;;;;;;-5.15;100.00;96999.13;4992341;28;20437;-73
2022/03/08 05:13:13;;;;;;;11.83;7.30;;;;;;;-5.19;100.00;96998.00;4990864;28;20461;-73
2022/03/08 05:15:40;;;;;;;7.30;6.63;;;;;;;-5.26;100.00;96989.50;4990682;28;20964;-73
2022/03/08 05:18:06;;;;;;;7.40;5.97;;;;;;;-5.27;100.00;97005.97;5006748;28;20825;-73
2022/03/08 05:20:33;;;;;;;9.27;6.47;;;;;;;-5.73;100.00;96958.13;5006668;28;20443;-73
2022/03/08 05:23:00;;;;;;;10.17;6.10;;;;;;;-5.88;100.00;96963.53;5006630;28;20516;-73
2022/03/08 05:25:28;;;;;;;8.30;6.60;;;;;;;-5.75;100.00;96985.84;5006709;28;21039;-73
2022/03/08 05:27:56;;;;;;;7.73;6.40;;;;;;;-5.57;100.00;97005.75;4990410;28;21058;-73
2022/03/08 05:30:23;;;;;;;6.57;6.07;;;;;;;-5.49;100.00;97011.44;5006667;28;20472;-73
2022/03/08 05:32:50;;;;;;;7.10;6.27;;;;;;;-5.85;100.00;96967.50;4990411;28;20451;-73
2022/03/08 05:35:16;;;;;;;7.43;5.87;;;;;;;-5.53;100.00;97010.28;4991705;28;20452;-74
2022/03/08 05:37:43;;;;;;;9.93;7.80;;;;;;;-5.48;100.00;96992.41;5006638;28;20421;-72
2022/03/08 05:40:10;;;;;;;7.50;6.70;;;;;;;-5.63;100.00;96989.34;4967703;28;20440;-72
2022/03/08 05:42:40;;;;;;;8.17;6.67;;;;;;;-5.43;100.00;97017.56;4987440;28;20469;-72
2022/03/08 05:45:09;;;;;;;6.87;6.27;;;;;;;-5.66;100.00;97013.72;4990368;28;20457;-72
2022/03/08 05:47:37;;;;;;;7.13;6.07;;;;;;;-6.04;100.00;96984.63;4991697;28;20469;-72
2022/03/08 05:50:06;;;;;;;6.63;5.40;;;;;;;-5.88;100.00;97014.22;5006786;28;20959;-72
2022/03/08 05:52:33;;;;;;;6.53;6.03;;;;;;;-5.62;100.00;97010.72;4990469;28;20560;-72
2022/03/08 05:54:59;;;;;;;7.77;6.67;;;;;;;-5.57;100.00;97018.63;4991795;28;20522;-72
2022/03/08 05:57:26;;;;;;;10.20;7.00;;;;;;;-5.61;100.00;97010.50;4990410;28;20506;-72
2022/03/08 05:59:53;;;;;;;9.33;6.53;;;;;;;-5.52;100.00;97021.38;4990418;28;20864;-72
2022/03/08 06:02:21;;;;;;;7.23;6.63;;;;;;;-5.68;100.00;97009.78;5006751;28;20848;-72
2022/03/08 06:04:49;;;;;;;117.87;56.53;;;;;;;-5.62;100.00;97029.53;5006340;28;20542;-72
2022/03/08 06:07:16;;;;;;;99.53;48.77;;;;;;;-5.77;100.00;97005.84;5006605;28;20441;-72
2022/03/08 06:09:43;;;;;;;57.70;31.37;;;;;;;-5.57;100.00;97036.66;4990252;28;20433;-72
2022/03/08 06:12:09;;;;;;;64.50;30.30;;;;;;;-5.66;100.00;97002.63;5006474;28;20523;-72
2022/03/08 06:14:36;;;;;;;35.37;18.67;;;;;;;-5.79;100.00;97000.13;5006369;28;20464;-72
2022/03/08 06:17:05;;;;;;;25.80;16.27;;;;;;;-5.40;100.00;97028.25;4991513;28;20437;-72
2022/03/08 06:19:32;;;;;;;32.07;24.10;;;;;;;-4.86;100.00;97023.50;4991520;28;20976;-72
2022/03/08 06:21:59;;;;;;;22.80;15.57;;;;;;;-4.88;100.00;96999.72;5006410;28;20440;-72
2022/03/08 06:24:25;;;;;;;21.70;12.87;;;;;;;-5.18;100.00;96984.91;5006391;28;21039;-71
2022/03/08 06:26:52;;;;;;;19.23;12.80;;;;;;;-5.09;100.00;97039.53;4989923;28;20448;-71
2022/03/08 06:29:19;;;;;;;32.30;19.00;;;;;;;-5.25;100.00;97029.72;4990170;28;20456;-71
2022/03/08 06:31:46;;;;;;;23.80;16.97;;;;;;;-5.55;100.00;97003.75;5006298;28;20492;-71
2022/03/08 06:34:12;;;;;;;21.90;16.87;;;;;;;-5.37;100.00;97030.41;4990356;28;20496;-71
2022/03/08 06:36:40;;;;;;;64.00;32.10;;;;;;;-5.30;100.00;97006.38;4991268;28;20461;-72
2022/03/08 06:39:06;;;;;;;24.50;17.50;;;;;;;-5.18;100.00;97015.81;5006304;28;20432;-72
2022/03/08 06:41:33;;;;;;;22.23;13.50;;;;;;;-5.44;100.00;96988.44;4993374;28;20507;-72
2022/03/08 06:44:00;;;;;;;14.20;10.17;;;;;;;-5.36;100.00;97011.34;4994625;28;20504;-72
2022/03/08 06:46:27;;;;;;;10.20;9.20;;;;;;;-5.17;100.00;97032.84;5009796;28;20444;-72
2022/03/08 06:48:54;;;;;;;8.73;7.80;;;;;;;-5.25;100.00;97003.97;4994757;28;20464;-72
2022/03/08 06:51:21;;;;;;;14.33;8.33;;;;;;;-5.17;100.00;97011.44;4993389;28;20531;-72
2022/03/08 06:53:47;;;;;;;15.20;9.90;;;;;;;-5.21;100.00;97007.69;5009587;28;20487;-72
2022/03/08 06:56:14;;;;;;;12.00;10.60;;;;;;;-5.23;100.00;97018.22;5009520;28;20540;-72
2022/03/08 06:58:41;;;;;;;15.33;9.97;;;;;;;-5.09;100.00;97029.22;5009778;28;20469;-72
2022/03/08 07:01:07;;;;;;;19.17;9.97;;;;;;;-5.00;100.00;97032.34;5009530;28;20440;-72
2022/03/08 07:03:34;;;;;;;16.67;10.10;;;;;;;-5.04;100.00;97038.91;4993150;28;20483;-72
2022/03/08 07:06:01;;;;;;;13.83;10.33;;;;;;;-5.17;100.00;96986.47;4993092;28;20502;-72
2022/03/08 07:08:29;;;;;;;11.07;9.77;;;;;;;-4.77;100.00;97030.78;4994381;28;20821;-72
2022/03/08 07:10:55;;;;;;;17.50;10.57;;;;;;;-4.78;100.00;97011.13;5009378;28;20945;-72
2022/03/08 07:13:22;;;;;;;18.30;12.30;;;;;;;-4.92;100.00;96993.41;5009307;28;20507;-72
2022/03/08 07:15:49;;;;;;;16.57;12.50;;;;;;;-4.60;100.00;97012.16;4994329;28;20428;-72
2022/03/08 07:18:16;;;;;;;16.23;12.83;;;;;;;-4.28;100.00;97034.28;4994280;28;20429;-73
2022/03/08 07:20:42;;;;;;;29.87;19.27;;;;;;;-4.06;100.00;97031.28;4992800;28;20447;-73
2022/03/08 07:23:09;;;;;;;32.33;22.00;;;;;;;-3.88;100.00;97023.50;4992798;28;20472;-73
2022/03/08 07:25:36;;;;;;;29.40;19.03;;;;;;;-3.84;100.00;96996.25;4992902;28;20440;-73
2022/03/08 07:28:03;;;;;;;24.37;18.00;;;;;;;-3.52;100.00;97012.34;4994059;28;20576;-72
2022/03/08 07:30:50;;;;;;;21.10;15.90;;;;;;;-3.06;100.00;97050.47;4999770;28;20420;-72
2022/03/08 07:33:17;;;;;;;28.13;16.53;;;;;;;-2.82;100.00;97037.56;4992689;28;20960;-72
2022/03/08 07:35:43;;;;;;;16.50;12.80;;;;;;;-2.59;100.00;97047.16;4992623;28;20499;-72
2022/03/08 07:38:10;;;;;;;20.17;14.13;;;;;;;-2.43;100.00;97034.31;5008694;28;20482;-72
2022/03/08 07:40:37;;;;;;;18.13;14.83;;;;;;;-2.23;100.00;97036.59;5008932;28;20479;-72
2022/03/08 07:43:04;;;;;;;15.70;12.63;;;;;;;-1.89;100.00;97036.75;5008763;28;20464;-72
2022/03/08 07:45:32;;;;;;;20.97;14.70;;;;;;;-1.78;100.00;97030.75;5008822;28;20472;-72
2022/03/08 07:47:59;;;;;;;19.00;14.37;;;;;;;-1.86;100.00;97013.78;5008656;28;21171;-73
2022/03/08 07:50:27;;;;;;;15.97;12.03;;;;;;;-1.58;100.00;97035.53;4992447;28;20441;-73
2022/03/08 07:52:54;;;;;;;13.70;11.00;;;;;;;-1.35;100.00;97045.03;5007307;28;20853;-73
2022/03/08 07:55:21;;;;;;;17.40;12.63;;;;;;;-1.30;100.00;97027.75;4992364;28;20853;-73
2022/03/08 07:57:48;;;;;;;19.70;12.93;;;;;;;-1.03;100.00;97045.34;5008522;28;20499;-73
2022/03/08 08:00:28;;;;;;;16.43;12.90;;;;;;;-1.11;100.00;97019.75;4993508;28;20429;-73
2022/03/08 08:02:55;;;;;;;12.70;11.23;;;;;;;-0.78;100.00;97035.38;4992148;28;20821;-73
2022/03/08 08:05:22;;;;;;;13.03;10.70;;;;;;;-0.58;100.00;97031.50;5008267;28;20993;-73
2022/03/08 08:07:49;;;;;;;16.17;11.70;;;;;;;-0.22;100.00;97030.97;4993416;28;20464;-73
2022/03/08 08:10:15;;;;;;;14.47;11.30;;;;;;;-0.11;100.00;97056.09;4992023;28;20432;-73
2022/03/08 08:12:42;;;;;;;13.27;11.90;;;;;;;0.13;100.00;97061.03;5008356;28;20437;-72
2022/03/08 08:15:09;;;;;;;14.97;9.90;;;;;;;0.10;100.00;97058.94;5008122;28;20461;-72
2022/03/08 08:17:36;;;;;;;16.13;11.50;;;;;;;-0.04;100.00;97022.91;4993540;28;20429;-72
2022/03/08 08:20:03;;;;;;;13.60;11.00;;;;;;;0.21;100.00;97048.44;4995236;28;20455;-72
2022/03/08 08:22:30;;;;;;;13.30;12.00;;;;;;;0.42;100.00;97059.09;4975799;28;21032;-72
2022/03/08 08:24:57;;;;;;;15.40;11.97;;;;;;;0.31;100.00;97036.59;4992978;28;20459;-72
2022/03/08 08:27:23;;;;;;;10.63;8.83;;;;;;;0.41;100.00;97047.88;4991855;28;20446;-72
2022/03/08 08:29:50;;;;;;;14.00;11.07;;;;;;;0.61;100.00;97059.53;5007804;28;20551;-72
2022/03/08 08:32:17;;;;;;;12.33;9.27;;;;;;;0.73;100.00;97054.97;4991694;28;20524;-72
2022/03/08 08:34:43;;;;;;;11.20;8.83;;;;;;;0.52;100.00;97025.34;4992828;28;20449;-72
2022/03/08 08:37:11;;;;;;;11.90;8.90;;;;;;;0.58;100.00;97042.59;4991674;28;20429;-72
2022/03/08 08:39:38;;;;;;;10.73;9.17;;;;;;;0.64;100.00;97038.22;4991647;28;20524;-72
2022/03/08 08:42:06;;;;;;;11.10;9.90;;;;;;;0.62;100.00;97024.69;4991572;28;20433;-72
2022/03/08 08:44:37;;;;;;;9.60;8.67;;;;;;;0.62;100.00;97038.47;5006915;28;20464;-72
2022/03/08 08:47:05;;;;;;;14.00;8.70;;;;;;;0.83;100.00;97055.88;4991408;28;20446;-72
2022/03/08 08:49:31;;;;;;;14.60;9.17;;;;;;;0.87;100.00;97040.53;5007697;28;20500;-72
2022/03/08 08:52:02;;;;;;;9.93;8.77;;;;;;;1.01;100.00;97031.31;5007630;28;20484;-72
2022/03/08 08:54:30;;;;;;;11.73;7.73;;;;;;;1.21;100.00;97042.94;4991041;28;20469;-72
2022/03/08 08:56:57;;;;;;;12.63;8.77;;;;;;;1.39;100.00;97047.75;4991214;28;20464;-72
2022/03/08 08:59:23;;;;;;;13.70;8.57;;;;;;;1.35;100.00;97041.50;4992424;28;20425;-72
2022/03/08 09:01:50;;;;;;;8.33;7.43;;;;;;;1.04;100.00;97037.84;4992483;28;20462;-72
2022/03/08 09:04:17;;;;;;;10.33;8.53;;;;;;;1.17;100.00;97027.00;4991957;28;20454;-72
2022/03/08 09:06:44;;;;;;;13.03;8.50;;;;;;;1.58;100.00;97020.25;5007387;28;20456;-73
2022/03/08 09:09:10;;;;;;;11.90;9.40;;;;;;;1.98;100.00;97052.81;5007175;28;20815;-73
2022/03/08 09:11:37;;;;;;;8.73;7.70;;;;;;;1.68;100.00;97024.75;5007236;28;20528;-73
2022/03/08 09:14:05;;;;;;;7.13;6.30;;;;;;;2.00;100.00;97048.94;4990765;28;20555;-73
2022/03/08 09:16:31;;;;;;;10.30;6.93;;;;;;;2.11;100.00;97038.53;4992269;28;20479;-75
2022/03/08 09:18:58;;;;;;;8.30;7.50;;;;;;;2.06;100.00;97031.50;5006904;28;20437;-73
2022/03/08 09:21:25;;;;;;;9.57;6.53;;;;;;;2.15;100.00;97019.53;4992216;28;20790;-73
2022/03/08 09:23:52;;;;;;;9.00;6.17;;;;;;;2.32;98.28;97016.72;4990584;28;20492;-73
2022/03/08 09:26:19;;;;;;;10.50;8.07;;;;;;;2.41;97.65;97027.47;4991062;28;20804;-73
2022/03/08 09:28:45;;;;;;;10.17;6.67;;;;;;;2.69;98.26;97045.28;5006741;28;20496;-73
2022/03/08 09:31:12;;;;;;;9.73;6.57;;;;;;;2.78;94.18;97035.13;5006811;28;20852;-73
2022/03/08 09:33:40;;;;;;;6.83;6.13;;;;;;;2.54;90.90;97024.38;4991542;28;20473;-73
2022/03/08 09:36:07;;;;;;;9.40;5.40;;;;;;;2.66;87.81;97030.91;4990596;28;20437;-73
2022/03/08 09:38:34;;;;;;;6.23;5.67;;;;;;;2.91;82.29;97045.84;4990677;28;20844;-73
2022/03/08 09:41:02;;;;;;;5.03;4.60;;;;;;;3.00;76.87;97055.78;4991968;28;20429;-73
2022/03/08 09:43:31;;;;;;;5.43;4.60;;;;;;;3.09;76.09;97054.25;4990527;28;20461;-73
2022/03/08 09:45:57;;;;;;;6.87;5.23;;;;;;;2.77;75.38;97010.06;5006680;28;20453;-73
2022/03/08 09:48:24;;;;;;;7.27;4.03;;;;;;;2.72;72.27;97038.78;4990710;28;20998;-73
2022/03/08 09:50:54;;;;;;;7.57;4.10;;;;;;;2.75;69.21;97025.19;5007316;28;20857;-73
2022/03/08 09:53:21;;;;;;;4.53;4.00;;;;;;;2.99;68.54;97044.56;4991018;28;20851;-73
2022/03/08 09:55:47;;;;;;;5.57;4.30;;;;;;;2.66;67.83;97004.03;4990388;28;20480;-73
2022/03/08 09:58:14;;;;;;;4.80;4.30;;;;;;;3.21;69.94;97042.50;5006566;28;20525;-71
2022/03/08 10:00:40;;;;;;;5.10;4.57;;;;;;;3.16;68.54;97054.75;4991626;28;20453;-73
2022/03/08 10:03:11;;;;;;;4.97;4.43;;;;;;;2.96;68.24;97014.53;4990177;28;20449;-73
2022/03/08 10:05:42;;;;;;;5.50;5.00;;;;;;;3.29;68.17;97040.41;4991548;28;20465;-73
2022/03/08 10:08:21;;;;;;;5.70;4.90;;;;;;;3.41;68.44;97052.16;4990362;28;20447;-73
2022/03/08 10:11:00;;;;;;;6.63;5.30;;;;;;;3.64;66.90;97040.38;5006604;28;20437;-73
2022/03/08 10:13:47;;;;;;;6.90;4.30;;;;;;;3.72;64.19;97044.28;4991397;28;20453;-73
2022/03/08 10:16:28;;;;;;;6.10;4.23;;;;;;;3.69;63.51;97042.19;4992588;28;20981;-73
2022/03/08 10:19:03;;;;;;;6.47;4.97;;;;;;;3.59;64.08;97037.75;4995740;28;20449;-73
2022/03/08 10:21:33;;;;;;;4.93;4.53;;;;;;;3.61;65.97;97040.91;5010524;28;20867;-73
2022/03/08 10:24:14;;;;;;;5.43;4.77;;;;;;;3.91;67.57;97041.91;4993917;28;20904;-73
2022/03/08 10:26:50;;;;;;;5.03;4.17;;;;;;;3.75;65.23;97021.03;5010228;28;20990;-73
2022/03/08 10:29:32;;;;;;;4.60;4.20;;;;;;;3.66;63.39;97024.44;4993941;28;20461;-73
2022/03/08 10:32:20;;;;;;;4.63;4.23;;;;;;;3.89;63.96;97036.16;5010211;28;20442;-73
2022/03/08 10:34:50;;;;;;;5.00;4.60;;;;;;;3.61;63.49;97029.69;4993639;28;20462;-73
2022/03/08 10:37:20;;;;;;;6.03;5.47;;;;;;;3.34;64.26;97029.94;4977802;28;20476;-73
2022/03/08 10:39:48;;;;;;;7.40;4.63;;;;;;;3.62;63.08;97034.63;4994049;28;20462;-73
2022/03/08 10:42:23;;;;;;;6.43;5.70;;;;;;;3.82;63.64;97037.22;4994066;28;20541;-73
2022/03/08 10:44:52;;;;;;;5.20;4.70;;;;;;;3.63;63.57;97022.34;4993525;28;20487;-73
2022/03/08 10:47:18;;;;;;;9.00;6.33;;;;;;;3.44;63.02;96996.75;4994931;28;20532;-73
2022/03/08 10:49:53;;;;;;;7.20;4.23;;;;;;;3.71;64.23;97021.78;5009706;28;20935;-73
2022/03/08 10:52:34;;;;;;;6.17;4.23;;;;;;;3.80;63.32;97017.59;5010062;28;20503;-73
2022/03/08 10:55:34;;;;;;;5.53;4.10;;;;;;;4.25;62.96;97019.28;5009951;28;20540;-73
2022/03/08 10:58:05;;;;;;;6.60;5.90;;;;;;;4.55;61.79;97007.13;5009909;28;20444;-73
2022/03/08 11:00:39;;;;;;;6.50;4.73;;;;;;;4.47;62.37;97015.53;4993719;28;20836;-73
2022/03/08 11:03:05;;;;;;;5.77;4.80;;;;;;;4.67;61.50;97021.47;4994576;28;20429;-73
2022/03/08 11:05:44;;;;;;;5.00;4.60;;;;;;;4.81;60.40;97018.22;5009449;28;20445;-73
2022/03/08 11:08:12;;;;;;;3.83;3.43;;;;;;;4.41;59.40;96993.84;4993338;28;20428;-73
2022/03/08 11:10:40;;;;;;;7.13;4.97;;;;;;;4.23;59.52;96978.72;5009155;28;21012;-73
2022/03/08 11:13:09;;;;;;;4.50;3.97;;;;;;;4.38;59.43;97008.22;4994351;28;20436;-73
2022/03/08 11:15:38;;;;;;;5.03;4.50;;;;;;;4.41;59.61;97014.78;5009660;28;21357;-73
2022/03/08 11:18:08;;;;;;;7.43;4.50;;;;;;;4.44;61.04;97006.41;4994388;28;20433;-73
2022/03/08 11:20:37;;;;;;;6.03;3.60;;;;;;;4.38;59.65;97005.63;4994261;28;20911;-73
2022/03/08 11:23:04;;;;;;;6.10;4.43;;;;;;;4.55;59.26;97000.06;4992893;28;20447;-73
2022/03/08 11:25:36;;;;;;;4.80;4.40;;;;;;;4.93;57.74;96995.09;4992976;28;20481;-73
2022/03/08 11:28:19;;;;;;;4.30;3.87;;;;;;;5.21;58.24;97006.69;4994201;28;20948;-73